sensor_id;sensor_type;location;lat;lon;timestamp;P1;durP1;ratioP1;P2;durP2;ratioP2
75837;SDS011;64480;52.040;113.502;2022-11-18T00:02:07;20.25;;;9.10;;
75837;SDS011;64480;52.040;113.502;2022-11-18T00:05:14;20.27;;;9.77;;
75837;SDS011;64480;52.040;113.502;2022-11-18T00:08:17;21.42;;;9.25;;
75837;SDS011;64480;52.040;113.502;2022-11-18T00:11:24;37.75;;;13.45;;
75837;SDS011;64480;52.040;113.502;2022-11-18T00:14:46;35.28;;;13.35;;
75837;SDS011;64480;52.040;113.502;2022-11-18T00:17:49;45.17;;;14.50;;
75837;SDS011;64480;52.040;113.502;2022-11-18T00:20:52;42.25;;;14.60;;
75837;SDS011;64480;52.040;113.502;2022-11-18T00:23:56;30.88;;;13.25;;
75837;SDS011;64480;52.040;113.502;2022-11-18T00:26:59;42.90;;;14.88;;
75837;SDS011;64480;52.040;113.502;2022-11-18T00:30:02;41.03;;;17.08;;
75837;SDS011;64480;52.040;113.502;2022-11-18T00:33:06;38.55;;;16.02;;
75837;SDS011;64480;52.040;113.502;2022-11-18T00:36:10;32.92;;;12.57;;
75837;SDS011;64480;52.040;113.502;2022-11-18T00:39:14;34.47;;;12.90;;
75837;SDS011;64480;52.040;113.502;2022-11-18T00:42:22;45.30;;;14.13;;
75837;SDS011;64480;52.040;113.502;2022-11-18T00:45:44;31.92;;;12.77;;
75837;SDS011;64480;52.040;113.502;2022-11-18T00:48:47;30.92;;;13.65;;
75837;SDS011;64480;52.040;113.502;2022-11-18T00:51:50;57.53;;;18.63;;
75837;SDS011;64480;52.040;113.502;2022-11-18T00:54:53;70.80;;;23.92;;
75837;SDS011;64480;52.040;113.502;2022-11-18T00:57:57;78.57;;;25.17;;
75837;SDS011;64480;52.040;113.502;2022-11-18T01:01:00;70.75;;;25.95;;
75837;SDS011;64480;52.040;113.502;2022-11-18T01:04:06;54.15;;;19.25;;
75837;SDS011;64480;52.040;113.502;2022-11-18T01:07:09;36.72;;;14.68;;
75837;SDS011;64480;52.040;113.502;2022-11-18T01:10:13;63.95;;;26.00;;
75837;SDS011;64480;52.040;113.502;2022-11-18T01:13:17;30.30;;;13.68;;
75837;SDS011;64480;52.040;113.502;2022-11-18T01:16:23;32.97;;;14.00;;
75837;SDS011;64480;52.040;113.502;2022-11-18T01:19:28;31.67;;;13.88;;
75837;SDS011;64480;52.040;113.502;2022-11-18T01:22:32;42.28;;;15.02;;
75837;SDS011;64480;52.040;113.502;2022-11-18T01:25:36;57.58;;;22.40;;
75837;SDS011;64480;52.040;113.502;2022-11-18T01:28:40;53.85;;;21.55;;
75837;SDS011;64480;52.040;113.502;2022-11-18T01:31:43;79.30;;;30.92;;
75837;SDS011;64480;52.040;113.502;2022-11-18T01:35:06;70.18;;;29.58;;
75837;SDS011;64480;52.040;113.502;2022-11-18T01:38:11;81.90;;;35.28;;
75837;SDS011;64480;52.040;113.502;2022-11-18T01:41:16;76.95;;;32.25;;
75837;SDS011;64480;52.040;113.502;2022-11-18T01:48:11;79.68;;;33.85;;
75837;SDS011;64480;52.040;113.502;2022-11-18T01:51:24;79.82;;;31.73;;
75837;SDS011;64480;52.040;113.502;2022-11-18T01:54:33;78.28;;;31.50;;
75837;SDS011;64480;52.040;113.502;2022-11-18T01:57:39;73.80;;;31.63;;
75837;SDS011;64480;52.040;113.502;2022-11-18T02:00:43;77.93;;;29.65;;
75837;SDS011;64480;52.040;113.502;2022-11-18T02:03:47;87.28;;;33.17;;
75837;SDS011;64480;52.040;113.502;2022-11-18T02:06:51;91.10;;;39.17;;
75837;SDS011;64480;52.040;113.502;2022-11-18T02:09:56;86.88;;;37.92;;
75837;SDS011;64480;52.040;113.502;2022-11-18T02:13:01;94.43;;;37.97;;
75837;SDS011;64480;52.040;113.502;2022-11-18T02:19:18;86.30;;;38.92;;
75837;SDS011;64480;52.040;113.502;2022-11-18T02:22:34;90.28;;;40.47;;
75837;SDS011;64480;52.040;113.502;2022-11-18T02:29:29;87.22;;;33.08;;
75837;SDS011;64480;52.040;113.502;2022-11-18T02:32:42;86.18;;;36.92;;
75837;SDS011;64480;52.040;113.502;2022-11-18T02:35:46;95.68;;;36.90;;
75837;SDS011;64480;52.040;113.502;2022-11-18T02:38:59;92.93;;;36.40;;
75837;SDS011;64480;52.040;113.502;2022-11-18T02:42:08;91.57;;;37.03;;
75837;SDS011;64480;52.040;113.502;2022-11-18T02:45:15;94.78;;;41.10;;
75837;SDS011;64480;52.040;113.502;2022-11-18T02:48:21;98.47;;;40.35;;
75837;SDS011;64480;52.040;113.502;2022-11-18T02:51:28;91.85;;;38.92;;
75837;SDS011;64480;52.040;113.502;2022-11-18T02:54:33;78.15;;;35.03;;
75837;SDS011;64480;52.040;113.502;2022-11-18T02:57:42;76.80;;;33.15;;
75837;SDS011;64480;52.040;113.502;2022-11-18T03:00:56;69.90;;;31.38;;
75837;SDS011;64480;52.040;113.502;2022-11-18T03:04:02;77.85;;;34.08;;
75837;SDS011;64480;52.040;113.502;2022-11-18T03:07:09;71.05;;;32.40;;
75837;SDS011;64480;52.040;113.502;2022-11-18T03:10:18;81.53;;;29.80;;
75837;SDS011;64480;52.040;113.502;2022-11-18T03:13:27;70.57;;;30.92;;
75837;SDS011;64480;52.040;113.502;2022-11-18T03:23:35;65.90;;;29.90;;
75837;SDS011;64480;52.040;113.502;2022-11-18T03:26:53;65.25;;;29.55;;
75837;SDS011;64480;52.040;113.502;2022-11-18T03:30:09;68.85;;;30.48;;
75837;SDS011;64480;52.040;113.502;2022-11-18T03:36:23;63.33;;;27.98;;
75837;SDS011;64480;52.040;113.502;2022-11-18T03:39:55;72.57;;;29.90;;
75837;SDS011;64480;52.040;113.502;2022-11-18T03:43:15;70.80;;;29.48;;
75837;SDS011;64480;52.040;113.502;2022-11-18T03:46:25;63.17;;;26.00;;
75837;SDS011;64480;52.040;113.502;2022-11-18T03:49:36;74.75;;;30.25;;
75837;SDS011;64480;52.040;113.502;2022-11-18T03:52:45;69.72;;;27.98;;
75837;SDS011;64480;52.040;113.502;2022-11-18T03:55:51;59.15;;;24.92;;
75837;SDS011;64480;52.040;113.502;2022-11-18T03:59:03;61.33;;;24.50;;
75837;SDS011;64480;52.040;113.502;2022-11-18T04:02:30;52.00;;;20.40;;
75837;SDS011;64480;52.040;113.502;2022-11-18T04:05:35;50.50;;;20.90;;
75837;SDS011;64480;52.040;113.502;2022-11-18T04:08:41;44.17;;;17.80;;
75837;SDS011;64480;52.040;113.502;2022-11-18T04:11:47;41.72;;;17.67;;
75837;SDS011;64480;52.040;113.502;2022-11-18T04:15:04;43.67;;;16.35;;
75837;SDS011;64480;52.040;113.502;2022-11-18T04:18:07;41.05;;;16.95;;
75837;SDS011;64480;52.040;113.502;2022-11-18T04:21:11;39.35;;;16.70;;
75837;SDS011;64480;52.040;113.502;2022-11-18T04:24:14;35.25;;;16.15;;
75837;SDS011;64480;52.040;113.502;2022-11-18T04:27:18;38.67;;;17.40;;
75837;SDS011;64480;52.040;113.502;2022-11-18T04:30:21;42.25;;;18.00;;
75837;SDS011;64480;52.040;113.502;2022-11-18T04:33:24;44.78;;;20.63;;
75837;SDS011;64480;52.040;113.502;2022-11-18T04:36:27;39.83;;;17.73;;
75837;SDS011;64480;52.040;113.502;2022-11-18T04:39:31;40.35;;;18.77;;
75837;SDS011;64480;52.040;113.502;2022-11-18T04:42:36;44.92;;;20.10;;
75837;SDS011;64480;52.040;113.502;2022-11-18T04:45:39;41.58;;;17.33;;
75837;SDS011;64480;52.040;113.502;2022-11-18T04:48:43;43.42;;;18.65;;
75837;SDS011;64480;52.040;113.502;2022-11-18T04:51:46;45.40;;;19.42;;
75837;SDS011;64480;52.040;113.502;2022-11-18T04:54:50;47.10;;;19.88;;
75837;SDS011;64480;52.040;113.502;2022-11-18T04:57:53;40.05;;;20.00;;
75837;SDS011;64480;52.040;113.502;2022-11-18T05:00:56;42.78;;;19.25;;
75837;SDS011;64480;52.040;113.502;2022-11-18T05:04:00;39.40;;;16.15;;
75837;SDS011;64480;52.040;113.502;2022-11-18T05:07:04;36.85;;;17.23;;
75837;SDS011;64480;52.040;113.502;2022-11-18T05:10:09;34.70;;;16.27;;
75837;SDS011;64480;52.040;113.502;2022-11-18T05:13:12;32.17;;;15.85;;
75837;SDS011;64480;52.040;113.502;2022-11-18T05:16:15;34.13;;;15.40;;
75837;SDS011;64480;52.040;113.502;2022-11-18T05:19:18;35.72;;;17.25;;
75837;SDS011;64480;52.040;113.502;2022-11-18T05:22:22;36.28;;;16.10;;
75837;SDS011;64480;52.040;113.502;2022-11-18T05:25:25;35.33;;;15.27;;
75837;SDS011;64480;52.040;113.502;2022-11-18T05:28:28;25.20;;;14.23;;
75837;SDS011;64480;52.040;113.502;2022-11-18T05:31:32;37.90;;;17.20;;
75837;SDS011;64480;52.040;113.502;2022-11-18T05:34:35;37.67;;;15.32;;
75837;SDS011;64480;52.040;113.502;2022-11-18T05:37:38;30.95;;;14.98;;
75837;SDS011;64480;52.040;113.502;2022-11-18T05:40:41;24.98;;;13.20;;
75837;SDS011;64480;52.040;113.502;2022-11-18T05:43:45;29.85;;;13.68;;
75837;SDS011;64480;52.040;113.502;2022-11-18T05:46:48;32.80;;;16.08;;
75837;SDS011;64480;52.040;113.502;2022-11-18T05:49:51;31.83;;;15.32;;
75837;SDS011;64480;52.040;113.502;2022-11-18T05:52:55;33.22;;;14.75;;
75837;SDS011;64480;52.040;113.502;2022-11-18T05:56:06;37.22;;;19.20;;
75837;SDS011;64480;52.040;113.502;2022-11-18T05:59:12;32.42;;;15.35;;
75837;SDS011;64480;52.040;113.502;2022-11-18T06:02:17;30.33;;;15.07;;
75837;SDS011;64480;52.040;113.502;2022-11-18T06:05:25;28.33;;;14.38;;
75837;SDS011;64480;52.040;113.502;2022-11-18T06:08:29;28.90;;;13.18;;
75837;SDS011;64480;52.040;113.502;2022-11-18T06:14:49;33.15;;;14.20;;
75837;SDS011;64480;52.040;113.502;2022-11-18T06:18:25;30.10;;;14.45;;
75837;SDS011;64480;52.040;113.502;2022-11-18T06:21:32;37.42;;;16.92;;
75837;SDS011;64480;52.040;113.502;2022-11-18T06:24:44;30.00;;;14.73;;
75837;SDS011;64480;52.040;113.502;2022-11-18T06:27:50;26.70;;;13.52;;
75837;SDS011;64480;52.040;113.502;2022-11-18T06:30:56;39.83;;;16.38;;
75837;SDS011;64480;52.040;113.502;2022-11-18T06:37:28;49.40;;;19.20;;
75837;SDS011;64480;52.040;113.502;2022-11-18T06:40:32;41.83;;;16.27;;
75837;SDS011;64480;52.040;113.502;2022-11-18T06:43:36;44.10;;;20.58;;
75837;SDS011;64480;52.040;113.502;2022-11-18T06:50:26;37.55;;;16.50;;
75837;SDS011;64480;52.040;113.502;2022-11-18T07:00:38;30.95;;;14.85;;
75837;SDS011;64480;52.040;113.502;2022-11-18T07:07:10;26.45;;;12.93;;
75837;SDS011;64480;52.040;113.502;2022-11-18T07:10:14;26.00;;;13.93;;
75837;SDS011;64480;52.040;113.502;2022-11-18T07:13:17;24.80;;;12.00;;
75837;SDS011;64480;52.040;113.502;2022-11-18T07:20:09;19.98;;;10.05;;
75837;SDS011;64480;52.040;113.502;2022-11-18T07:23:13;20.92;;;9.90;;
75837;SDS011;64480;52.040;113.502;2022-11-18T07:26:24;22.63;;;11.90;;
75837;SDS011;64480;52.040;113.502;2022-11-18T07:29:36;27.38;;;12.70;;
75837;SDS011;64480;52.040;113.502;2022-11-18T07:32:44;24.88;;;12.82;;
75837;SDS011;64480;52.040;113.502;2022-11-18T07:35:47;62.95;;;34.05;;
75837;SDS011;64480;52.040;113.502;2022-11-18T07:38:53;34.97;;;16.67;;
75837;SDS011;64480;52.040;113.502;2022-11-18T07:45:21;29.50;;;14.18;;
75837;SDS011;64480;52.040;113.502;2022-11-18T07:48:25;46.50;;;18.20;;
75837;SDS011;64480;52.040;113.502;2022-11-18T07:51:29;38.95;;;19.13;;
75837;SDS011;64480;52.040;113.502;2022-11-18T07:54:35;41.90;;;19.05;;
75837;SDS011;64480;52.040;113.502;2022-11-18T07:57:39;27.08;;;15.88;;
75837;SDS011;64480;52.040;113.502;2022-11-18T08:00:42;18.58;;;7.93;;
75837;SDS011;64480;52.040;113.502;2022-11-18T08:03:46;11.40;;;4.55;;
75837;SDS011;64480;52.040;113.502;2022-11-18T08:06:49;7.13;;;3.00;;
75837;SDS011;64480;52.040;113.502;2022-11-18T08:09:52;7.38;;;3.83;;
75837;SDS011;64480;52.040;113.502;2022-11-18T08:12:56;7.93;;;3.33;;
75837;SDS011;64480;52.040;113.502;2022-11-18T08:15:59;7.55;;;4.10;;
75837;SDS011;64480;52.040;113.502;2022-11-18T08:19:03;11.52;;;4.03;;
75837;SDS011;64480;52.040;113.502;2022-11-18T08:22:06;8.85;;;4.15;;
75837;SDS011;64480;52.040;113.502;2022-11-18T08:25:09;11.20;;;5.47;;
75837;SDS011;64480;52.040;113.502;2022-11-18T08:28:13;16.38;;;7.68;;
75837;SDS011;64480;52.040;113.502;2022-11-18T08:31:18;19.70;;;8.70;;
75837;SDS011;64480;52.040;113.502;2022-11-18T08:34:23;26.35;;;10.13;;
75837;SDS011;64480;52.040;113.502;2022-11-18T08:37:26;18.58;;;7.53;;
75837;SDS011;64480;52.040;113.502;2022-11-18T08:40:29;15.05;;;6.72;;
75837;SDS011;64480;52.040;113.502;2022-11-18T08:43:35;15.02;;;6.45;;
75837;SDS011;64480;52.040;113.502;2022-11-18T08:46:39;10.38;;;5.60;;
75837;SDS011;64480;52.040;113.502;2022-11-18T08:49:42;9.93;;;5.38;;
75837;SDS011;64480;52.040;113.502;2022-11-18T08:52:46;14.10;;;6.57;;
75837;SDS011;64480;52.040;113.502;2022-11-18T08:55:55;12.43;;;5.22;;
75837;SDS011;64480;52.040;113.502;2022-11-18T08:58:59;15.68;;;6.53;;
75837;SDS011;64480;52.040;113.502;2022-11-18T09:02:02;11.32;;;5.38;;
75837;SDS011;64480;52.040;113.502;2022-11-18T09:05:06;17.25;;;7.32;;
75837;SDS011;64480;52.040;113.502;2022-11-18T09:08:09;22.00;;;9.30;;
75837;SDS011;64480;52.040;113.502;2022-11-18T09:11:17;17.65;;;7.60;;
75837;SDS011;64480;52.040;113.502;2022-11-18T09:14:22;19.10;;;6.57;;
75837;SDS011;64480;52.040;113.502;2022-11-18T09:17:45;18.20;;;8.18;;
75837;SDS011;64480;52.040;113.502;2022-11-18T09:20:59;23.52;;;10.00;;
75837;SDS011;64480;52.040;113.502;2022-11-18T09:24:05;25.73;;;9.15;;
75837;SDS011;64480;52.040;113.502;2022-11-18T09:27:08;18.77;;;6.55;;
75837;SDS011;64480;52.040;113.502;2022-11-18T09:30:18;16.15;;;8.02;;
75837;SDS011;64480;52.040;113.502;2022-11-18T09:33:21;22.83;;;9.73;;
75837;SDS011;64480;52.040;113.502;2022-11-18T09:36:25;29.30;;;12.93;;
75837;SDS011;64480;52.040;113.502;2022-11-18T09:39:29;18.67;;;8.02;;
75837;SDS011;64480;52.040;113.502;2022-11-18T09:45:43;24.15;;;10.80;;
75837;SDS011;64480;52.040;113.502;2022-11-18T09:48:49;20.95;;;11.32;;
75837;SDS011;64480;52.040;113.502;2022-11-18T09:56:04;28.92;;;9.90;;
75837;SDS011;64480;52.040;113.502;2022-11-18T09:59:16;21.45;;;7.75;;
75837;SDS011;64480;52.040;113.502;2022-11-18T10:05:47;21.45;;;7.47;;
75837;SDS011;64480;52.040;113.502;2022-11-18T10:12:27;25.02;;;10.70;;
75837;SDS011;64480;52.040;113.502;2022-11-18T10:19:17;24.45;;;9.77;;
75837;SDS011;64480;52.040;113.502;2022-11-18T10:22:25;17.52;;;6.38;;
75837;SDS011;64480;52.040;113.502;2022-11-18T10:25:31;19.98;;;6.88;;
75837;SDS011;64480;52.040;113.502;2022-11-18T10:28:34;17.83;;;7.03;;
75837;SDS011;64480;52.040;113.502;2022-11-18T10:32:20;20.38;;;8.48;;
75837;SDS011;64480;52.040;113.502;2022-11-18T10:35:18;22.42;;;8.80;;
75837;SDS011;64480;52.040;113.502;2022-11-18T10:38:26;23.52;;;8.18;;
75837;SDS011;64480;52.040;113.502;2022-11-18T10:41:30;20.58;;;8.30;;
75837;SDS011;64480;52.040;113.502;2022-11-18T10:44:50;19.00;;;8.30;;
75837;SDS011;64480;52.040;113.502;2022-11-18T10:47:57;14.35;;;5.70;;
75837;SDS011;64480;52.040;113.502;2022-11-18T10:51:18;12.75;;;5.53;;
75837;SDS011;64480;52.040;113.502;2022-11-18T10:54:23;11.88;;;4.80;;
75837;SDS011;64480;52.040;113.502;2022-11-18T10:57:27;9.95;;;4.68;;
75837;SDS011;64480;52.040;113.502;2022-11-18T11:00:40;7.47;;;3.50;;
75837;SDS011;64480;52.040;113.502;2022-11-18T11:07:32;10.32;;;4.88;;
75837;SDS011;64480;52.040;113.502;2022-11-18T11:10:41;13.60;;;3.97;;
75837;SDS011;64480;52.040;113.502;2022-11-18T11:14:47;13.63;;;5.72;;
75837;SDS011;64480;52.040;113.502;2022-11-18T11:18:03;13.18;;;5.07;;
75837;SDS011;64480;52.040;113.502;2022-11-18T11:21:33;14.95;;;5.72;;
75837;SDS011;64480;52.040;113.502;2022-11-18T11:24:45;15.00;;;6.00;;
75837;SDS011;64480;52.040;113.502;2022-11-18T11:28:14;19.23;;;8.20;;
75837;SDS011;64480;52.040;113.502;2022-11-18T11:31:21;25.92;;;10.18;;
75837;SDS011;64480;52.040;113.502;2022-11-18T11:37:56;28.83;;;9.95;;
75837;SDS011;64480;52.040;113.502;2022-11-18T11:41:05;20.42;;;9.23;;
75837;SDS011;64480;52.040;113.502;2022-11-18T11:44:26;19.67;;;8.38;;
75837;SDS011;64480;52.040;113.502;2022-11-18T11:50:55;11.90;;;5.50;;
75837;SDS011;64480;52.040;113.502;2022-11-18T11:57:47;11.30;;;4.00;;
75837;SDS011;64480;52.040;113.502;2022-11-18T12:01:09;9.88;;;3.55;;
75837;SDS011;64480;52.040;113.502;2022-11-18T12:07:28;9.15;;;3.72;;
75837;SDS011;64480;52.040;113.502;2022-11-18T12:13:55;5.07;;;2.28;;
75837;SDS011;64480;52.040;113.502;2022-11-18T12:21:06;6.85;;;2.30;;
75837;SDS011;64480;52.040;113.502;2022-11-18T12:23:42;8.05;;;2.38;;
75837;SDS011;64480;52.040;113.502;2022-11-18T12:30:32;6.20;;;2.15;;
75837;SDS011;64480;52.040;113.502;2022-11-18T12:33:40;8.32;;;3.05;;
75837;SDS011;64480;52.040;113.502;2022-11-18T12:36:55;7.45;;;2.80;;
75837;SDS011;64480;52.040;113.502;2022-11-18T12:39:58;7.90;;;2.60;;
75837;SDS011;64480;52.040;113.502;2022-11-18T12:43:03;5.15;;;2.97;;
75837;SDS011;64480;52.040;113.502;2022-11-18T12:52:48;18.35;;;7.10;;
75837;SDS011;64480;52.040;113.502;2022-11-18T12:55:54;11.82;;;3.03;;
75837;SDS011;64480;52.040;113.502;2022-11-18T12:58:59;15.10;;;4.07;;
75837;SDS011;64480;52.040;113.502;2022-11-18T13:05:20;7.55;;;2.88;;
75837;SDS011;64480;52.040;113.502;2022-11-18T13:08:25;8.70;;;3.10;;
75837;SDS011;64480;52.040;113.502;2022-11-18T13:11:31;14.98;;;3.78;;
75837;SDS011;64480;52.040;113.502;2022-11-18T13:14:46;12.50;;;4.22;;
75837;SDS011;64480;52.040;113.502;2022-11-18T13:18:16;21.80;;;6.68;;
75837;SDS011;64480;52.040;113.502;2022-11-18T13:21:22;11.38;;;3.67;;
75837;SDS011;64480;52.040;113.502;2022-11-18T13:24:49;13.07;;;3.40;;
75837;SDS011;64480;52.040;113.502;2022-11-18T13:27:57;10.68;;;3.08;;
75837;SDS011;64480;52.040;113.502;2022-11-18T13:31:46;3.92;;;1.48;;
75837;SDS011;64480;52.040;113.502;2022-11-18T13:34:57;3.92;;;1.52;;
75837;SDS011;64480;52.040;113.502;2022-11-18T13:38:19;5.25;;;2.00;;
75837;SDS011;64480;52.040;113.502;2022-11-18T13:41:30;5.32;;;2.05;;
75837;SDS011;64480;52.040;113.502;2022-11-18T13:44:36;5.53;;;1.80;;
75837;SDS011;64480;52.040;113.502;2022-11-18T13:47:50;9.88;;;2.67;;
75837;SDS011;64480;52.040;113.502;2022-11-18T13:51:00;11.73;;;3.75;;
75837;SDS011;64480;52.040;113.502;2022-11-18T13:54:04;6.30;;;3.05;;
75837;SDS011;64480;52.040;113.502;2022-11-18T13:57:15;3.17;;;1.60;;
75837;SDS011;64480;52.040;113.502;2022-11-18T14:00:22;5.18;;;2.67;;
75837;SDS011;64480;52.040;113.502;2022-11-18T14:03:47;6.72;;;2.75;;
75837;SDS011;64480;52.040;113.502;2022-11-18T14:07:14;9.10;;;4.00;;
75837;SDS011;64480;52.040;113.502;2022-11-18T14:10:30;15.30;;;5.20;;
75837;SDS011;64480;52.040;113.502;2022-11-18T14:13:47;16.27;;;5.53;;
75837;SDS011;64480;52.040;113.502;2022-11-18T14:16:53;15.50;;;6.68;;
75837;SDS011;64480;52.040;113.502;2022-11-18T14:20:17;16.75;;;6.13;;
75837;SDS011;64480;52.040;113.502;2022-11-18T14:23:31;14.63;;;5.70;;
75837;SDS011;64480;52.040;113.502;2022-11-18T14:26:36;17.63;;;6.25;;
75837;SDS011;64480;52.040;113.502;2022-11-18T14:29:48;20.73;;;6.93;;
75837;SDS011;64480;52.040;113.502;2022-11-18T14:33:11;23.83;;;6.78;;
75837;SDS011;64480;52.040;113.502;2022-11-18T14:36:19;23.30;;;8.18;;
75837;SDS011;64480;52.040;113.502;2022-11-18T14:39:23;23.90;;;9.38;;
75837;SDS011;64480;52.040;113.502;2022-11-18T14:42:30;33.67;;;9.35;;
75837;SDS011;64480;52.040;113.502;2022-11-18T14:45:34;26.83;;;10.98;;
75837;SDS011;64480;52.040;113.502;2022-11-18T14:48:39;26.08;;;9.20;;
75837;SDS011;64480;52.040;113.502;2022-11-18T14:51:42;25.40;;;9.93;;
75837;SDS011;64480;52.040;113.502;2022-11-18T14:54:46;40.72;;;12.77;;
75837;SDS011;64480;52.040;113.502;2022-11-18T14:57:49;21.95;;;8.65;;
75837;SDS011;64480;52.040;113.502;2022-11-18T15:00:52;29.17;;;9.65;;
75837;SDS011;64480;52.040;113.502;2022-11-18T15:03:56;27.70;;;9.60;;
75837;SDS011;64480;52.040;113.502;2022-11-18T15:06:59;23.98;;;7.43;;
75837;SDS011;64480;52.040;113.502;2022-11-18T15:10:03;20.10;;;7.28;;
75837;SDS011;64480;52.040;113.502;2022-11-18T15:13:06;12.13;;;5.97;;
75837;SDS011;64480;52.040;113.502;2022-11-18T15:19:13;14.55;;;6.10;;
75837;SDS011;64480;52.040;113.502;2022-11-18T15:22:17;13.80;;;5.40;;
75837;SDS011;64480;52.040;113.502;2022-11-18T15:25:20;14.80;;;4.78;;
75837;SDS011;64480;52.040;113.502;2022-11-18T15:28:24;13.23;;;5.05;;
75837;SDS011;64480;52.040;113.502;2022-11-18T15:31:27;18.13;;;4.72;;
75837;SDS011;64480;52.040;113.502;2022-11-18T15:34:30;17.65;;;6.63;;
75837;SDS011;64480;52.040;113.502;2022-11-18T15:37:34;10.07;;;3.58;;
75837;SDS011;64480;52.040;113.502;2022-11-18T15:40:37;12.25;;;5.93;;
75837;SDS011;64480;52.040;113.502;2022-11-18T15:43:42;20.50;;;5.80;;
75837;SDS011;64480;52.040;113.502;2022-11-18T15:46:49;18.85;;;7.32;;
75837;SDS011;64480;52.040;113.502;2022-11-18T15:49:53;12.70;;;3.95;;
75837;SDS011;64480;52.040;113.502;2022-11-18T15:52:57;12.05;;;4.50;;
75837;SDS011;64480;52.040;113.502;2022-11-18T15:56:13;11.90;;;4.70;;
75837;SDS011;64480;52.040;113.502;2022-11-18T15:59:25;10.80;;;4.47;;
75837;SDS011;64480;52.040;113.502;2022-11-18T16:02:29;10.77;;;4.30;;
75837;SDS011;64480;52.040;113.502;2022-11-18T16:05:32;13.27;;;3.88;;
75837;SDS011;64480;52.040;113.502;2022-11-18T16:08:35;13.02;;;4.93;;
75837;SDS011;64480;52.040;113.502;2022-11-18T16:11:38;5.70;;;2.88;;
75837;SDS011;64480;52.040;113.502;2022-11-18T16:15:00;6.25;;;2.92;;
75837;SDS011;64480;52.040;113.502;2022-11-18T16:18:21;14.35;;;5.85;;
75837;SDS011;64480;52.040;113.502;2022-11-18T16:21:25;20.60;;;6.18;;
75837;SDS011;64480;52.040;113.502;2022-11-18T16:24:30;12.80;;;4.97;;
75837;SDS011;64480;52.040;113.502;2022-11-18T16:27:33;18.42;;;5.93;;
75837;SDS011;64480;52.040;113.502;2022-11-18T16:30:37;19.52;;;7.97;;
75837;SDS011;64480;52.040;113.502;2022-11-18T16:34:03;14.50;;;4.50;;
75837;SDS011;64480;52.040;113.502;2022-11-18T16:37:26;12.30;;;4.72;;
75837;SDS011;64480;52.040;113.502;2022-11-18T16:40:29;15.55;;;5.20;;
75837;SDS011;64480;52.040;113.502;2022-11-18T16:43:32;7.43;;;3.22;;
75837;SDS011;64480;52.040;113.502;2022-11-18T16:46:36;10.02;;;4.10;;
75837;SDS011;64480;52.040;113.502;2022-11-18T16:49:40;8.70;;;3.65;;
75837;SDS011;64480;52.040;113.502;2022-11-18T16:52:45;11.23;;;5.25;;
75837;SDS011;64480;52.040;113.502;2022-11-18T16:55:49;8.32;;;3.60;;
75837;SDS011;64480;52.040;113.502;2022-11-18T16:58:56;11.48;;;4.18;;
75837;SDS011;64480;52.040;113.502;2022-11-18T17:02:04;6.78;;;3.63;;
75837;SDS011;64480;52.040;113.502;2022-11-18T17:05:08;8.07;;;3.38;;
75837;SDS011;64480;52.040;113.502;2022-11-18T17:08:12;14.07;;;4.47;;
75837;SDS011;64480;52.040;113.502;2022-11-18T17:11:15;8.55;;;3.92;;
75837;SDS011;64480;52.040;113.502;2022-11-18T17:14:19;11.52;;;4.15;;
75837;SDS011;64480;52.040;113.502;2022-11-18T17:17:23;12.93;;;4.32;;
75837;SDS011;64480;52.040;113.502;2022-11-18T17:20:26;15.60;;;5.57;;
75837;SDS011;64480;52.040;113.502;2022-11-18T17:23:29;6.82;;;3.03;;
75837;SDS011;64480;52.040;113.502;2022-11-18T17:26:33;11.85;;;4.65;;
75837;SDS011;64480;52.040;113.502;2022-11-18T17:29:36;6.50;;;3.35;;
75837;SDS011;64480;52.040;113.502;2022-11-18T17:32:39;10.90;;;4.32;;
75837;SDS011;64480;52.040;113.502;2022-11-18T17:35:42;11.70;;;4.07;;
75837;SDS011;64480;52.040;113.502;2022-11-18T17:38:47;8.75;;;3.90;;
75837;SDS011;64480;52.040;113.502;2022-11-18T17:41:52;4.93;;;2.33;;
75837;SDS011;64480;52.040;113.502;2022-11-18T17:45:14;3.67;;;2.40;;
75837;SDS011;64480;52.040;113.502;2022-11-18T17:48:18;6.97;;;2.58;;
75837;SDS011;64480;52.040;113.502;2022-11-18T17:51:23;7.47;;;3.60;;
75837;SDS011;64480;52.040;113.502;2022-11-18T17:54:27;7.68;;;2.00;;
75837;SDS011;64480;52.040;113.502;2022-11-18T17:57:30;5.72;;;2.58;;
75837;SDS011;64480;52.040;113.502;2022-11-18T18:00:35;5.88;;;2.35;;
75837;SDS011;64480;52.040;113.502;2022-11-18T18:03:39;8.85;;;3.28;;
75837;SDS011;64480;52.040;113.502;2022-11-18T18:06:43;4.18;;;2.25;;
75837;SDS011;64480;52.040;113.502;2022-11-18T18:09:47;5.00;;;2.60;;
75837;SDS011;64480;52.040;113.502;2022-11-18T18:12:50;3.10;;;1.75;;
75837;SDS011;64480;52.040;113.502;2022-11-18T18:16:11;7.22;;;3.03;;
75837;SDS011;64480;52.040;113.502;2022-11-18T18:19:18;8.25;;;2.15;;
75837;SDS011;64480;52.040;113.502;2022-11-18T18:22:22;7.93;;;3.33;;
75837;SDS011;64480;52.040;113.502;2022-11-18T18:25:26;8.40;;;3.33;;
75837;SDS011;64480;52.040;113.502;2022-11-18T18:28:29;6.82;;;2.17;;
75837;SDS011;64480;52.040;113.502;2022-11-18T18:31:33;20.65;;;3.63;;
75837;SDS011;64480;52.040;113.502;2022-11-18T18:34:38;4.93;;;2.15;;
75837;SDS011;64480;52.040;113.502;2022-11-18T18:37:41;3.67;;;1.80;;
75837;SDS011;64480;52.040;113.502;2022-11-18T18:40:45;4.90;;;2.53;;
75837;SDS011;64480;52.040;113.502;2022-11-18T18:43:48;7.43;;;2.80;;
75837;SDS011;64480;52.040;113.502;2022-11-18T18:46:52;7.32;;;2.60;;
75837;SDS011;64480;52.040;113.502;2022-11-18T18:49:55;5.32;;;2.08;;
75837;SDS011;64480;52.040;113.502;2022-11-18T18:52:58;4.97;;;3.08;;
75837;SDS011;64480;52.040;113.502;2022-11-18T18:56:01;8.02;;;2.90;;
75837;SDS011;64480;52.040;113.502;2022-11-18T18:59:04;8.80;;;2.55;;
75837;SDS011;64480;52.040;113.502;2022-11-18T19:02:10;7.18;;;3.15;;
75837;SDS011;64480;52.040;113.502;2022-11-18T19:05:14;5.43;;;2.22;;
75837;SDS011;64480;52.040;113.502;2022-11-18T19:08:17;7.25;;;2.08;;
75837;SDS011;64480;52.040;113.502;2022-11-18T19:11:20;3.60;;;2.03;;
75837;SDS011;64480;52.040;113.502;2022-11-18T19:14:43;5.13;;;2.05;;
75837;SDS011;64480;52.040;113.502;2022-11-18T19:17:46;3.03;;;1.10;;
75837;SDS011;64480;52.040;113.502;2022-11-18T19:20:49;3.35;;;1.52;;
75837;SDS011;64480;52.040;113.502;2022-11-18T19:23:52;6.28;;;1.95;;
75837;SDS011;64480;52.040;113.502;2022-11-18T19:26:56;5.80;;;1.75;;
75837;SDS011;64480;52.040;113.502;2022-11-18T19:29:59;3.15;;;1.35;;
75837;SDS011;64480;52.040;113.502;2022-11-18T19:33:03;2.75;;;1.42;;
75837;SDS011;64480;52.040;113.502;2022-11-18T19:36:07;3.88;;;1.65;;
75837;SDS011;64480;52.040;113.502;2022-11-18T19:39:11;6.43;;;1.95;;
75837;SDS011;64480;52.040;113.502;2022-11-18T19:42:14;4.15;;;1.65;;
75837;SDS011;64480;52.040;113.502;2022-11-18T19:45:18;4.28;;;1.50;;